Time,TemperatureF,DewpointF,PressureIn,WindDirection,WindDirectionDegrees,WindSpeedMPH,WindSpeedGustMPH,Humidity,HourlyPrecipIn,Conditions,Clouds,dailyrainin,SoftwareType,DateUTC
2013-07-21 00:05:00,71.0,67.0,29.55,SW,235,2.0,10.0,88,0.00,,,0.01,,2013-07-21 03:05:00,
2013-07-21 00:14:00,71.0,67.0,29.55,SW,235,2.0,10.0,88,0.00,,,0.01,,2013-07-21 03:14:00,
2013-07-21 00:26:00,71.0,68.0,29.56,SW,232,2.0,9.0,91,0.00,,,0.01,,2013-07-21 03:26:00,
2013-07-21 00:36:00,71.0,68.0,29.56,SW,233,4.0,9.0,91,0.00,,,0.01,,2013-07-21 03:36:00,
2013-07-21 00:45:00,71.0,68.0,29.56,SW,233,4.0,9.0,91,0.00,,,0.01,,2013-07-21 03:45:00,
2013-07-21 01:00:00,70.0,68.0,29.56,West,260,1.0,9.0,93,0.00,,,0.01,,2013-07-21 04:00:00,
2013-07-21 01:01:00,70.0,68.0,29.56,SW,234,1.0,8.0,94,0.00,,,0.01,,2013-07-21 04:01:00,
2013-07-21 01:11:00,70.0,68.0,29.56,SW,234,1.0,8.0,94,0.00,,,0.01,,2013-07-21 04:11:00,
2013-07-21 01:22:00,70.0,68.0,29.57,SW,229,1.0,6.0,95,0.00,,,0.01,,2013-07-21 04:22:00,
2013-07-21 01:32:00,69.0,68.0,29.57,SW,224,0.0,3.0,96,0.00,,,0.01,,2013-07-21 04:32:00,
2013-07-21 01:43:00,69.0,68.0,29.57,SW,224,0.0,3.0,96,0.00,,,0.01,,2013-07-21 04:43:00,
2013-07-21 01:53:00,69.0,68.0,29.58,WSW,246,1.0,7.0,97,0.00,,,0.01,,2013-07-21 04:53:00,
2013-07-21 02:02:00,69.0,68.0,29.58,SW,228,0.0,6.0,98,0.00,,,0.01,,2013-07-21 05:02:00,
2013-07-21 02:11:00,69.0,68.0,29.58,SW,228,0.0,6.0,98,0.00,,,0.01,,2013-07-21 05:11:00,
2013-07-21 02:22:00,68.0,68.0,29.59,West,272,0.0,7.0,99,0.00,,,0.01,,2013-07-21 05:22:00,
2013-07-21 02:32:00,68.0,68.0,29.60,West,265,0.0,5.0,100,0.00,,,0.01,,2013-07-21 05:32:00,
2013-07-21 02:42:00,68.0,68.0,29.60,West,265,0.0,5.0,100,0.00,,,0.01,,2013-07-21 05:42:00,
2013-07-21 02:52:00,67.0,67.0,29.60,WSW,241,0.0,3.0,100,0.00,,,0.01,,2013-07-21 05:52:00,
2013-07-21 03:01:00,67.0,67.0,29.60,WSW,241,0.0,2.0,100,0.00,,,0.01,,2013-07-21 06:01:00,
2013-07-21 03:11:00,66.0,66.0,29.61,WSW,239,0.0,2.0,100,0.00,,,0.01,,2013-07-21 06:11:00,
2013-07-21 03:22:00,66.0,66.0,29.61,WSW,239,0.0,2.0,100,0.00,,,0.01,,2013-07-21 06:22:00,
2013-07-21 03:32:00,66.0,66.0,29.62,WSW,239,0.0,2.0,100,0.00,,,0.01,,2013-07-21 06:32:00,
2013-07-21 03:43:00,66.0,66.0,29.62,WSW,239,0.0,2.0,100,0.00,,,0.01,,2013-07-21 06:43:00,
2013-07-21 03:53:00,66.0,66.0,29.62,WSW,254,1.0,2.0,100,0.00,,,0.01,,2013-07-21 06:53:00,
2013-07-21 04:01:00,65.0,65.0,29.63,NNW,328,5.0,10.0,100,0.00,,,0.01,,2013-07-21 07:01:00,
2013-07-21 04:22:00,65.0,65.0,29.64,NW,313,2.0,8.0,100,0.00,,,0.01,,2013-07-21 07:22:00,
2013-07-21 04:32:00,64.0,63.0,29.65,NW,325,2.0,9.0,95,0.00,,,0.01,,2013-07-21 07:32:00,
2013-07-21 04:43:00,64.0,63.0,29.65,NW,325,2.0,9.0,95,0.00,,,0.01,,2013-07-21 07:43:00,
2013-07-21 04:53:00,64.0,61.0,29.66,NW,326,3.0,16.0,91,0.00,,,0.01,,2013-07-21 07:53:00,
2013-07-21 05:02:00,63.0,60.0,29.67,NNW,329,3.0,9.0,90,0.00,,,0.01,,2013-07-21 08:02:00,
2013-07-21 05:11:00,63.0,60.0,29.67,NNW,329,3.0,9.0,90,0.00,,,0.01,,2013-07-21 08:11:00,
2013-07-21 05:22:00,62.0,58.0,29.68,NW,323,2.0,12.0,87,0.00,,,0.01,,2013-07-21 08:22:00,
2013-07-21 05:33:00,62.0,58.0,29.69,NW,316,2.0,12.0,87,0.00,,,0.01,,2013-07-21 08:33:00,
2013-07-21 05:43:00,62.0,58.0,29.69,NW,316,2.0,12.0,87,0.00,,,0.01,,2013-07-21 08:43:00,
2013-07-21 05:52:00,61.0,57.0,29.70,NW,310,1.0,7.0,87,0.00,,,0.01,,2013-07-21 08:52:00,
2013-07-21 06:02:00,61.0,57.0,29.71,WNW,295,2.0,6.0,87,0.00,,,0.01,,2013-07-21 09:02:00,
2013-07-21 06:12:00,60.0,56.0,29.72,NW,325,2.0,6.0,88,0.00,,,0.01,,2013-07-21 09:12:00,
2013-07-21 06:22:00,60.0,56.0,29.72,NW,325,2.0,6.0,88,0.00,,,0.01,,2013-07-21 09:22:00,
2013-07-21 06:32:00,60.0,56.0,29.73,NW,319,3.0,5.0,87,0.00,,,0.01,,2013-07-21 09:32:00,
2013-07-21 06:42:00,60.0,56.0,29.73,NW,319,3.0,5.0,87,0.00,,,0.01,,2013-07-21 09:42:00,
2013-07-21 06:52:00,60.0,56.0,29.74,NNW,339,1.0,8.0,87,0.00,,,0.01,,2013-07-21 09:52:00,
2013-07-21 07:02:00,60.0,56.0,29.74,NNW,339,1.0,3.0,87,0.00,,,0.01,,2013-07-21 10:02:00,
2013-07-21 07:11:00,60.0,56.0,29.75,NNW,330,2.0,5.0,87,0.00,,,0.01,,2013-07-21 10:11:00,
2013-07-21 07:22:00,60.0,56.0,29.75,NNW,330,2.0,5.0,87,0.00,,,0.01,,2013-07-21 10:22:00,
2013-07-21 07:32:00,60.0,55.0,29.76,NW,326,2.0,5.0,85,0.00,,,0.01,,2013-07-21 10:32:00,
2013-07-21 07:43:00,60.0,55.0,29.76,NW,326,2.0,5.0,85,0.00,,,0.01,,2013-07-21 10:43:00,
2013-07-21 07:52:00,61.0,56.0,29.77,NW,324,3.0,5.0,84,0.00,,,0.01,,2013-07-21 10:52:00,
2013-07-21 08:02:00,62.0,56.0,29.78,NW,314,3.0,7.0,81,0.00,,,0.01,,2013-07-21 11:02:00,
2013-07-21 08:12:00,62.0,56.0,29.78,NW,314,3.0,7.0,81,0.00,,,0.01,,2013-07-21 11:12:00,
2013-07-21 08:22:00,62.0,55.0,29.78,NNW,327,5.0,10.0,78,0.00,,,0.01,,2013-07-21 11:22:00,
2013-07-21 08:33:00,63.0,56.0,29.79,NW,321,3.0,10.0,78,0.00,,,0.01,,2013-07-21 11:33:00,
2013-07-21 08:43:00,63.0,56.0,29.79,NW,321,3.0,10.0,78,0.00,,,0.01,,2013-07-21 11:43:00,
2013-07-21 08:52:00,64.0,56.0,29.80,NW,322,2.0,7.0,76,0.00,,,0.01,,2013-07-21 11:52:00,
2013-07-21 09:01:00,64.0,56.0,29.81,NNW,327,3.0,9.0,75,0.00,,,0.01,,2013-07-21 12:01:00,
2013-07-21 09:11:00,65.0,56.0,29.81,NNW,327,5.0,8.0,72,0.00,,,0.01,,2013-07-21 12:11:00,
2013-07-21 09:22:00,65.0,56.0,29.81,NNW,327,5.0,8.0,72,0.00,,,0.01,,2013-07-21 12:22:00,
2013-07-21 09:32:00,65.0,55.0,29.82,NW,320,4.0,8.0,70,0.00,,,0.01,,2013-07-21 12:32:00,
2013-07-21 09:43:00,65.0,55.0,29.82,NW,320,4.0,8.0,70,0.00,,,0.01,,2013-07-21 12:43:00,
2013-07-21 09:53:00,66.0,55.0,29.82,NW,318,5.0,9.0,68,0.00,,,0.01,,2013-07-21 12:53:00,
2013-07-21 10:02:00,67.0,56.0,29.83,NW,321,4.0,8.0,68,0.00,,,0.01,,2013-07-21 13:02:00,
2013-07-21 10:12:00,67.0,56.0,29.83,NW,321,4.0,8.0,68,0.00,,,0.01,,2013-07-21 13:12:00,
2013-07-21 10:22:00,67.0,55.0,29.82,NW,321,2.0,8.0,65,0.00,,,0.01,,2013-07-21 13:22:00,
2013-07-21 10:32:00,67.0,54.0,29.83,NNW,327,6.0,9.0,62,0.00,,,0.01,,2013-07-21 13:32:00,
2013-07-21 10:43:00,67.0,54.0,29.83,NNW,327,6.0,9.0,62,0.00,,,0.01,,2013-07-21 13:43:00,
2013-07-21 10:53:00,68.0,56.0,29.83,NW,311,2.0,8.0,65,0.00,,,0.01,,2013-07-21 13:53:00,
2013-07-21 11:01:00,69.0,55.0,29.83,NW,319,6.0,8.0,60,0.00,,,0.01,,2013-07-21 14:01:00,
2013-07-21 11:12:00,69.0,55.0,29.83,NW,320,4.0,12.0,60,0.00,,,0.01,,2013-07-21 14:12:00,
2013-07-21 11:23:00,69.0,55.0,29.83,NW,320,4.0,12.0,60,0.00,,,0.01,,2013-07-21 14:23:00,
2013-07-21 11:32:00,69.0,55.0,29.83,NW,324,4.0,9.0,62,0.00,,,0.01,,2013-07-21 14:32:00,
2013-07-21 11:43:00,69.0,55.0,29.83,NW,324,4.0,9.0,62,0.00,,,0.01,,2013-07-21 14:43:00,
2013-07-21 11:53:00,69.0,55.0,29.83,NW,321,5.0,12.0,60,0.00,,,0.01,,2013-07-21 14:53:00,
2013-07-21 12:02:00,70.0,56.0,29.84,NW,321,4.0,12.0,61,0.00,,,0.01,,2013-07-21 15:02:00,
2013-07-21 12:11:00,70.0,56.0,29.84,NW,321,4.0,12.0,61,0.00,,,0.01,,2013-07-21 15:11:00,
2013-07-21 12:22:00,71.0,55.0,29.84,NW,321,3.0,10.0,58,0.00,,,0.01,,2013-07-21 15:22:00,
2013-07-21 12:32:00,71.0,54.0,29.85,WSW,239,0.0,6.0,54,0.00,,,0.01,,2013-07-21 15:32:00,
2013-07-21 12:43:00,71.0,54.0,29.85,WSW,239,0.0,6.0,54,0.00,,,0.01,,2013-07-21 15:43:00,
2013-07-21 12:53:00,71.0,54.0,29.85,West,268,1.0,5.0,55,0.00,,,0.01,,2013-07-21 15:53:00,
2013-07-21 13:01:00,72.0,56.0,29.85,WNW,303,3.0,6.0,58,0.00,,,0.01,,2013-07-21 16:01:00,
2013-07-21 13:11:00,72.0,56.0,29.85,WNW,303,3.0,6.0,58,0.00,,,0.01,,2013-07-21 16:11:00,
2013-07-21 13:22:00,72.0,55.0,29.85,WNW,297,2.0,12.0,56,0.00,,,0.01,,2013-07-21 16:22:00,
2013-07-21 13:32:00,73.0,56.0,29.85,WNW,284,0.0,5.0,55,0.00,,,0.01,,2013-07-21 16:32:00,
2013-07-21 13:43:00,73.0,56.0,29.85,WNW,284,0.0,5.0,55,0.00,,,0.01,,2013-07-21 16:43:00,
2013-07-21 13:52:00,73.0,55.0,29.86,NW,306,1.0,8.0,53,0.00,,,0.01,,2013-07-21 16:52:00,
2013-07-21 14:02:00,73.0,55.0,29.86,NW,325,1.0,6.0,53,0.00,,,0.01,,2013-07-21 17:02:00,
2013-07-21 14:11:00,73.0,53.0,29.86,SW,234,1.0,6.0,50,0.00,,,0.01,,2013-07-21 17:11:00,
2013-07-21 14:22:00,73.0,53.0,29.86,SW,234,1.0,6.0,50,0.00,,,0.01,,2013-07-21 17:22:00,
2013-07-21 14:33:00,74.0,54.0,29.86,West,259,0.0,3.0,50,0.00,,,0.01,,2013-07-21 17:33:00,
2013-07-21 14:43:00,74.0,54.0,29.86,West,259,0.0,3.0,50,0.00,,,0.01,,2013-07-21 17:43:00,
2013-07-21 14:53:00,74.0,54.0,29.86,NNW,327,2.0,8.0,50,0.00,,,0.01,,2013-07-21 17:53:00,
2013-07-21 15:01:00,73.0,54.0,29.87,WNW,288,1.0,5.0,52,0.00,,,0.01,,2013-07-21 18:01:00,
2013-07-21 15:11:00,74.0,54.0,29.87,WNW,303,1.0,5.0,50,0.00,,,0.01,,2013-07-21 18:11:00,
2013-07-21 15:22:00,74.0,54.0,29.87,WNW,303,1.0,5.0,50,0.00,,,0.01,,2013-07-21 18:22:00,
2013-07-21 15:32:00,75.0,54.0,29.87,West,261,2.0,6.0,48,0.00,,,0.01,,2013-07-21 18:32:00,
2013-07-21 15:43:00,75.0,54.0,29.87,West,261,2.0,6.0,48,0.00,,,0.01,,2013-07-21 18:43:00,
2013-07-21 15:52:00,74.0,49.0,29.88,WNW,300,3.0,9.0,42,0.00,,,0.01,,2013-07-21 18:52:00,
2013-07-21 16:01:00,73.0,49.0,29.88,NW,317,2.0,8.0,42,0.00,,,0.01,,2013-07-21 19:01:00,
2013-07-21 16:11:00,73.0,49.0,29.88,NNW,331,5.0,8.0,42,0.00,,,0.01,,2013-07-21 19:11:00,
2013-07-21 16:22:00,73.0,49.0,29.88,NNW,331,5.0,8.0,42,0.00,,,0.01,,2013-07-21 19:22:00,
2013-07-21 16:32:00,73.0,50.0,29.88,NNW,333,2.0,8.0,44,0.00,,,0.01,,2013-07-21 19:32:00,
2013-07-21 16:42:00,73.0,50.0,29.88,NNW,333,2.0,8.0,44,0.00,,,0.01,,2013-07-21 19:42:00,
2013-07-21 16:52:00,72.0,50.0,29.88,NNW,339,3.0,10.0,46,0.00,,,0.01,,2013-07-21 19:52:00,
2013-07-21 17:02:00,72.0,52.0,29.88,NNW,340,1.0,7.0,49,0.00,,,0.01,,2013-07-21 20:02:00,
2013-07-21 17:12:00,72.0,53.0,29.89,NNW,327,3.0,5.0,52,0.00,,,0.01,,2013-07-21 20:12:00,
2013-07-21 17:22:00,72.0,53.0,29.89,NNW,327,3.0,5.0,52,0.00,,,0.01,,2013-07-21 20:22:00,
2013-07-21 17:32:00,72.0,53.0,29.89,NW,326,0.0,6.0,52,0.00,,,0.01,,2013-07-21 20:32:00,
2013-07-21 17:43:00,72.0,53.0,29.89,NW,326,0.0,6.0,52,0.00,,,0.01,,2013-07-21 20:43:00,
2013-07-21 17:52:00,72.0,54.0,29.89,NW,325,2.0,3.0,53,0.00,,,0.01,,2013-07-21 20:52:00,
2013-07-21 18:01:00,72.0,54.0,29.89,NNW,329,2.0,7.0,54,0.00,,,0.01,,2013-07-21 21:01:00,
2013-07-21 18:11:00,71.0,53.0,29.90,NNW,327,1.0,6.0,53,0.00,,,0.01,,2013-07-21 21:11:00,
2013-07-21 18:22:00,71.0,53.0,29.90,NNW,327,1.0,6.0,53,0.00,,,0.01,,2013-07-21 21:22:00,
2013-07-21 18:32:00,71.0,54.0,29.89,NNW,327,0.0,3.0,56,0.00,,,0.01,,2013-07-21 21:32:00,
2013-07-21 18:43:00,71.0,54.0,29.89,NNW,327,0.0,3.0,56,0.00,,,0.01,,2013-07-21 21:43:00,
2013-07-21 18:52:00,71.0,54.0,29.89,WNW,290,1.0,3.0,54,0.00,,,0.01,,2013-07-21 21:52:00,
2013-07-21 19:01:00,71.0,54.0,29.90,WNW,291,0.0,3.0,56,0.00,,,0.01,,2013-07-21 22:01:00,
2013-07-21 19:11:00,71.0,54.0,29.90,WNW,291,0.0,3.0,56,0.00,,,0.01,,2013-07-21 22:11:00,
2013-07-21 19:22:00,70.0,54.0,29.90,WNW,291,0.0,0.0,56,0.00,,,0.01,,2013-07-21 22:22:00,
2013-07-21 19:32:00,69.0,54.0,29.90,WNW,291,0.0,2.0,58,0.00,,,0.00,,2013-07-21 22:32:00,
2013-07-21 19:43:00,69.0,54.0,29.90,WNW,291,0.0,2.0,58,0.00,,,0.00,,2013-07-21 22:43:00,
2013-07-21 19:52:00,69.0,53.0,29.91,SW,220,3.0,7.0,57,0.00,,,0.00,,2013-07-21 22:52:00,
2013-07-21 20:02:00,69.0,54.0,29.91,SW,233,0.0,7.0,58,0.00,,,0.00,,2013-07-21 23:02:00,
2013-07-21 20:11:00,68.0,53.0,29.91,SW,233,0.0,0.0,59,0.00,,,0.00,,2013-07-21 23:11:00,
2013-07-21 20:22:00,68.0,53.0,29.91,SW,233,0.0,0.0,59,0.00,,,0.00,,2013-07-21 23:22:00,
2013-07-21 20:32:00,68.0,54.0,29.91,SW,233,0.0,0.0,61,0.00,,,0.00,,2013-07-21 23:32:00,
2013-07-21 20:42:00,68.0,54.0,29.91,SW,233,0.0,0.0,61,0.00,,,0.00,,2013-07-21 23:42:00,
2013-07-21 20:53:00,67.0,54.0,29.91,SW,233,0.0,0.0,63,0.00,,,0.00,,2013-07-21 23:53:00,
2013-07-21 21:01:00,65.0,53.0,29.91,SW,233,0.0,0.0,65,0.00,,,0.00,,2013-07-22 00:01:00,
2013-07-21 21:11:00,64.0,53.0,29.92,SW,233,0.0,0.0,67,0.00,,,0.00,,2013-07-22 00:11:00,
2013-07-21 21:22:00,64.0,53.0,29.92,SW,233,0.0,0.0,67,0.00,,,0.00,,2013-07-22 00:22:00,
2013-07-21 21:32:00,63.0,53.0,29.92,SW,233,0.0,1.0,71,0.00,,,0.00,,2013-07-22 00:32:00,
2013-07-21 21:42:00,63.0,53.0,29.92,SW,233,0.0,1.0,71,0.00,,,0.00,,2013-07-22 00:42:00,
2013-07-21 21:53:00,63.0,55.0,29.93,SW,233,0.0,1.0,74,0.00,,,0.00,,2013-07-22 00:53:00,
2013-07-21 22:02:00,62.0,55.0,29.94,SW,233,0.0,2.0,77,0.00,,,0.00,,2013-07-22 01:02:00,
2013-07-21 22:12:00,61.0,54.0,29.94,SW,233,2.0,3.0,78,0.00,,,0.00,,2013-07-22 01:12:00,
2013-07-21 22:22:00,61.0,54.0,29.94,SW,233,2.0,3.0,78,0.00,,,0.00,,2013-07-22 01:22:00,
2013-07-21 22:32:00,61.0,54.0,29.95,SW,226,1.0,5.0,78,0.00,,,0.00,,2013-07-22 01:32:00,
2013-07-21 22:42:00,61.0,54.0,29.95,SW,226,1.0,5.0,78,0.00,,,0.00,,2013-07-22 01:42:00,
2013-07-21 22:52:00,61.0,54.0,29.95,SW,226,1.0,3.0,79,0.00,,,0.00,,2013-07-22 01:52:00,
2013-07-21 23:02:00,60.0,54.0,29.96,SW,226,0.0,3.0,81,0.00,,,0.00,,2013-07-22 02:02:00,
2013-07-21 23:11:00,60.0,55.0,29.96,SW,219,2.0,6.0,85,0.00,,,0.00,,2013-07-22 02:11:00,
2013-07-21 23:22:00,60.0,55.0,29.96,SW,219,2.0,6.0,85,0.00,,,0.00,,2013-07-22 02:22:00,
2013-07-21 23:32:00,61.0,57.0,29.96,SW,218,1.0,3.0,86,0.00,,,0.00,,2013-07-22 02:32:00,
2013-07-21 23:43:00,61.0,57.0,29.96,SW,218,1.0,3.0,86,0.00,,,0.00,,2013-07-22 02:43:00,
2013-07-21 23:52:00,61.0,58.0,29.96,South,169,4.0,6.0,89,0.00,,,0.00,,2013-07-22 02:52:00,